sensor_id;sensor_type;location;lat;lon;timestamp;temperature;humidity
7077;DHT22;3579;48.956;9.154;2022-12-07T00:03:36;17.40;49.80
7077;DHT22;3579;48.956;9.154;2022-12-07T00:06:04;17.30;49.80
7077;DHT22;3579;48.956;9.154;2022-12-07T00:08:31;17.30;49.80
7077;DHT22;3579;48.956;9.154;2022-12-07T00:11:09;17.30;49.80
7077;DHT22;3579;48.956;9.154;2022-12-07T00:13:35;17.30;49.80
7077;DHT22;3579;48.956;9.154;2022-12-07T00:18:36;17.30;49.90
7077;DHT22;3579;48.956;9.154;2022-12-07T00:21:05;17.30;49.90
7077;DHT22;3579;48.956;9.154;2022-12-07T00:23:32;17.30;49.90
7077;DHT22;3579;48.956;9.154;2022-12-07T00:26:06;17.30;50.00
7077;DHT22;3579;48.956;9.154;2022-12-07T00:28:33;17.20;49.90
7077;DHT22;3579;48.956;9.154;2022-12-07T00:31:10;17.30;50.00
7077;DHT22;3579;48.956;9.154;2022-12-07T00:33:37;17.20;49.90
7077;DHT22;3579;48.956;9.154;2022-12-07T00:36:12;17.20;50.00
7077;DHT22;3579;48.956;9.154;2022-12-07T00:38:39;17.20;50.00
7077;DHT22;3579;48.956;9.154;2022-12-07T00:41:26;17.20;50.00
7077;DHT22;3579;48.956;9.154;2022-12-07T00:43:53;17.20;50.00
7077;DHT22;3579;48.956;9.154;2022-12-07T00:46:20;17.20;50.60
7077;DHT22;3579;48.956;9.154;2022-12-07T00:48:47;17.20;50.00
7077;DHT22;3579;48.956;9.154;2022-12-07T00:51:15;17.20;50.10
7077;DHT22;3579;48.956;9.154;2022-12-07T00:53:42;17.10;50.00
7077;DHT22;3579;48.956;9.154;2022-12-07T00:56:13;17.10;50.00
7077;DHT22;3579;48.956;9.154;2022-12-07T00:58:40;17.10;50.00
7077;DHT22;3579;48.956;9.154;2022-12-07T01:01:08;17.10;50.10
7077;DHT22;3579;48.956;9.154;2022-12-07T01:03:35;17.10;50.10
7077;DHT22;3579;48.956;9.154;2022-12-07T01:06:01;17.10;50.10
7077;DHT22;3579;48.956;9.154;2022-12-07T01:08:28;17.10;50.10
7077;DHT22;3579;48.956;9.154;2022-12-07T01:11:16;17.10;50.10
7077;DHT22;3579;48.956;9.154;2022-12-07T01:13:43;17.10;50.20
7077;DHT22;3579;48.956;9.154;2022-12-07T01:16:12;17.10;50.20
7077;DHT22;3579;48.956;9.154;2022-12-07T01:18:39;17.10;50.30
7077;DHT22;3579;48.956;9.154;2022-12-07T01:21:17;17.00;50.20
7077;DHT22;3579;48.956;9.154;2022-12-07T01:23:44;17.00;50.20
7077;DHT22;3579;48.956;9.154;2022-12-07T01:26:13;17.00;50.20
7077;DHT22;3579;48.956;9.154;2022-12-07T01:28:40;17.00;50.20
7077;DHT22;3579;48.956;9.154;2022-12-07T01:31:11;17.00;50.20
7077;DHT22;3579;48.956;9.154;2022-12-07T01:33:38;17.00;50.20
7077;DHT22;3579;48.956;9.154;2022-12-07T01:36:07;17.00;50.20
7077;DHT22;3579;48.956;9.154;2022-12-07T01:38:34;17.00;50.30
7077;DHT22;3579;48.956;9.154;2022-12-07T01:41:01;16.90;50.20
7077;DHT22;3579;48.956;9.154;2022-12-07T01:43:29;17.00;50.30
7077;DHT22;3579;48.956;9.154;2022-12-07T01:45:56;16.90;50.20
7077;DHT22;3579;48.956;9.154;2022-12-07T01:48:35;16.90;50.30
7077;DHT22;3579;48.956;9.154;2022-12-07T01:51:10;16.90;50.30
7077;DHT22;3579;48.956;9.154;2022-12-07T01:53:40;16.90;50.40
7077;DHT22;3579;48.956;9.154;2022-12-07T01:56:11;16.90;50.40
7077;DHT22;3579;48.956;9.154;2022-12-07T01:58:38;16.90;50.40
7077;DHT22;3579;48.956;9.154;2022-12-07T02:01:04;16.90;50.40
7077;DHT22;3579;48.956;9.154;2022-12-07T02:03:39;16.90;50.40
7077;DHT22;3579;48.956;9.154;2022-12-07T02:06:06;16.90;50.40
7077;DHT22;3579;48.956;9.154;2022-12-07T02:08:34;16.90;50.50
7077;DHT22;3579;48.956;9.154;2022-12-07T02:11:02;16.80;50.40
7077;DHT22;3579;48.956;9.154;2022-12-07T02:13:31;16.80;50.40
7077;DHT22;3579;48.956;9.154;2022-12-07T02:21:56;16.80;50.50
7077;DHT22;3579;48.956;9.154;2022-12-07T02:27:39;16.80;50.50
7077;DHT22;3579;48.956;9.154;2022-12-07T02:30:18;16.80;50.50
7077;DHT22;3579;48.956;9.154;2022-12-07T02:33:01;16.70;50.50
7077;DHT22;3579;48.956;9.154;2022-12-07T02:35:37;16.70;50.50
7077;DHT22;3579;48.956;9.154;2022-12-07T02:38:28;16.70;50.60
7077;DHT22;3579;48.956;9.154;2022-12-07T02:41:17;16.70;50.60
7077;DHT22;3579;48.956;9.154;2022-12-07T02:43:53;16.70;50.60
7077;DHT22;3579;48.956;9.154;2022-12-07T02:46:31;16.70;50.60
7077;DHT22;3579;48.956;9.154;2022-12-07T02:48:58;16.70;50.60
7077;DHT22;3579;48.956;9.154;2022-12-07T02:51:25;16.70;50.60
7077;DHT22;3579;48.956;9.154;2022-12-07T02:53:55;16.70;50.60
7077;DHT22;3579;48.956;9.154;2022-12-07T02:56:29;16.70;50.60
7077;DHT22;3579;48.956;9.154;2022-12-07T03:04:37;16.70;50.70
7077;DHT22;3579;48.956;9.154;2022-12-07T03:07:14;16.60;50.70
7077;DHT22;3579;48.956;9.154;2022-12-07T03:12:28;16.60;50.70
7077;DHT22;3579;48.956;9.154;2022-12-07T03:15:05;16.60;50.70
7077;DHT22;3579;48.956;9.154;2022-12-07T03:17:35;16.60;50.80
7077;DHT22;3579;48.956;9.154;2022-12-07T03:20:05;16.60;50.80
7077;DHT22;3579;48.956;9.154;2022-12-07T03:22:35;16.60;50.80
7077;DHT22;3579;48.956;9.154;2022-12-07T03:25:09;16.60;50.80
7077;DHT22;3579;48.956;9.154;2022-12-07T03:27:57;16.60;50.80
7077;DHT22;3579;48.956;9.154;2022-12-07T03:33:36;16.50;50.80
7077;DHT22;3579;48.956;9.154;2022-12-07T03:36:32;16.50;50.90
7077;DHT22;3579;48.956;9.154;2022-12-07T03:39:06;16.50;50.90
7077;DHT22;3579;48.956;9.154;2022-12-07T03:41:34;16.50;50.90
7077;DHT22;3579;48.956;9.154;2022-12-07T03:44:02;16.50;50.90
7077;DHT22;3579;48.956;9.154;2022-12-07T03:46:37;16.50;50.90
7077;DHT22;3579;48.956;9.154;2022-12-07T03:54:58;16.50;51.00
7077;DHT22;3579;48.956;9.154;2022-12-07T03:57:27;16.50;51.00
7077;DHT22;3579;48.956;9.154;2022-12-07T03:59:55;16.40;50.90
7077;DHT22;3579;48.956;9.154;2022-12-07T04:02:24;16.40;50.90
7077;DHT22;3579;48.956;9.154;2022-12-07T04:04:51;16.40;50.90
7077;DHT22;3579;48.956;9.154;2022-12-07T04:07:17;16.40;50.90
7077;DHT22;3579;48.956;9.154;2022-12-07T04:09:44;16.40;50.90
7077;DHT22;3579;48.956;9.154;2022-12-07T04:12:10;16.40;50.90
7077;DHT22;3579;48.956;9.154;2022-12-07T04:14:36;16.40;50.90
7077;DHT22;3579;48.956;9.154;2022-12-07T04:17:02;16.40;51.00
7077;DHT22;3579;48.956;9.154;2022-12-07T04:19:31;16.40;51.00
7077;DHT22;3579;48.956;9.154;2022-12-07T04:22:00;16.40;51.00
7077;DHT22;3579;48.956;9.154;2022-12-07T04:24:27;16.40;51.10
7077;DHT22;3579;48.956;9.154;2022-12-07T04:26:53;16.40;51.10
7077;DHT22;3579;48.956;9.154;2022-12-07T04:29:20;16.40;51.10
7077;DHT22;3579;48.956;9.154;2022-12-07T04:31:47;16.40;51.10
7077;DHT22;3579;48.956;9.154;2022-12-07T04:34:14;16.30;51.10
7077;DHT22;3579;48.956;9.154;2022-12-07T04:36:41;16.30;51.10
7077;DHT22;3579;48.956;9.154;2022-12-07T04:39:11;16.30;51.10
7077;DHT22;3579;48.956;9.154;2022-12-07T04:41:39;16.30;51.10
7077;DHT22;3579;48.956;9.154;2022-12-07T04:44:05;16.30;51.60
7077;DHT22;3579;48.956;9.154;2022-12-07T04:46:33;16.30;51.10
7077;DHT22;3579;48.956;9.154;2022-12-07T04:48:59;16.30;51.10
7077;DHT22;3579;48.956;9.154;2022-12-07T04:51:27;16.30;51.20
7077;DHT22;3579;48.956;9.154;2022-12-07T04:53:54;16.30;51.20
7077;DHT22;3579;48.956;9.154;2022-12-07T04:56:21;16.30;51.20
7077;DHT22;3579;48.956;9.154;2022-12-07T04:58:48;16.30;51.20
7077;DHT22;3579;48.956;9.154;2022-12-07T05:01:16;16.20;51.20
7077;DHT22;3579;48.956;9.154;2022-12-07T05:03:43;16.20;51.80
7077;DHT22;3579;48.956;9.154;2022-12-07T05:06:10;16.20;51.20
7077;DHT22;3579;48.956;9.154;2022-12-07T05:08:37;16.20;51.20
7077;DHT22;3579;48.956;9.154;2022-12-07T05:11:05;16.30;51.30
7077;DHT22;3579;48.956;9.154;2022-12-07T05:13:31;16.20;51.30
7077;DHT22;3579;48.956;9.154;2022-12-07T05:15:57;16.20;51.30
7077;DHT22;3579;48.956;9.154;2022-12-07T05:18:24;16.20;51.30
7077;DHT22;3579;48.956;9.154;2022-12-07T05:20:50;16.20;51.30
7077;DHT22;3579;48.956;9.154;2022-12-07T05:23:17;16.20;51.30
7077;DHT22;3579;48.956;9.154;2022-12-07T05:25:44;16.20;51.30
7077;DHT22;3579;48.956;9.154;2022-12-07T05:28:10;16.10;51.30
7077;DHT22;3579;48.956;9.154;2022-12-07T05:30:36;16.10;51.30
7077;DHT22;3579;48.956;9.154;2022-12-07T05:33:03;16.10;51.30
7077;DHT22;3579;48.956;9.154;2022-12-07T05:35:29;16.10;51.30
7077;DHT22;3579;48.956;9.154;2022-12-07T05:37:55;16.10;51.30
7077;DHT22;3579;48.956;9.154;2022-12-07T05:40:23;16.10;51.30
7077;DHT22;3579;48.956;9.154;2022-12-07T05:42:49;16.10;51.30
7077;DHT22;3579;48.956;9.154;2022-12-07T05:45:15;16.10;51.30
7077;DHT22;3579;48.956;9.154;2022-12-07T05:47:41;16.10;51.30
7077;DHT22;3579;48.956;9.154;2022-12-07T05:50:08;16.10;51.30
7077;DHT22;3579;48.956;9.154;2022-12-07T05:52:34;16.10;51.30
7077;DHT22;3579;48.956;9.154;2022-12-07T05:55:00;16.10;51.40
7077;DHT22;3579;48.956;9.154;2022-12-07T05:57:26;16.10;51.40
7077;DHT22;3579;48.956;9.154;2022-12-07T05:59:52;17.10;52.30
7077;DHT22;3579;48.956;9.154;2022-12-07T06:02:19;16.10;51.50
7077;DHT22;3579;48.956;9.154;2022-12-07T06:04:46;16.10;51.40
7077;DHT22;3579;48.956;9.154;2022-12-07T06:07:15;16.10;51.50
7077;DHT22;3579;48.956;9.154;2022-12-07T06:09:41;16.10;51.50
7077;DHT22;3579;48.956;9.154;2022-12-07T06:12:10;16.10;51.50
7077;DHT22;3579;48.956;9.154;2022-12-07T06:14:55;16.10;51.50
7077;DHT22;3579;48.956;9.154;2022-12-07T06:17:21;16.00;51.50
7077;DHT22;3579;48.956;9.154;2022-12-07T06:19:47;16.00;51.50
7077;DHT22;3579;48.956;9.154;2022-12-07T06:22:13;16.00;51.50
7077;DHT22;3579;48.956;9.154;2022-12-07T06:24:40;16.00;51.50
7077;DHT22;3579;48.956;9.154;2022-12-07T06:27:06;16.00;51.60
7077;DHT22;3579;48.956;9.154;2022-12-07T06:29:32;16.00;51.60
7077;DHT22;3579;48.956;9.154;2022-12-07T06:31:58;16.00;51.50
7077;DHT22;3579;48.956;9.154;2022-12-07T06:34:25;16.00;51.60
7077;DHT22;3579;48.956;9.154;2022-12-07T06:36:52;16.00;51.60
7077;DHT22;3579;48.956;9.154;2022-12-07T06:39:22;16.00;51.60
7077;DHT22;3579;48.956;9.154;2022-12-07T06:41:49;16.00;51.60
7077;DHT22;3579;48.956;9.154;2022-12-07T06:44:15;16.00;51.60
7077;DHT22;3579;48.956;9.154;2022-12-07T06:46:41;16.00;51.60
7077;DHT22;3579;48.956;9.154;2022-12-07T06:49:08;15.90;51.50
7077;DHT22;3579;48.956;9.154;2022-12-07T06:51:34;16.00;51.70
7077;DHT22;3579;48.956;9.154;2022-12-07T06:54:11;15.90;51.60
7077;DHT22;3579;48.956;9.154;2022-12-07T06:56:38;15.90;51.60
7077;DHT22;3579;48.956;9.154;2022-12-07T06:59:06;15.90;51.60
7077;DHT22;3579;48.956;9.154;2022-12-07T07:01:33;15.90;51.60
7077;DHT22;3579;48.956;9.154;2022-12-07T07:04:00;15.90;51.60
7077;DHT22;3579;48.956;9.154;2022-12-07T07:06:27;15.90;51.60
7077;DHT22;3579;48.956;9.154;2022-12-07T07:08:53;15.90;51.60
7077;DHT22;3579;48.956;9.154;2022-12-07T07:11:19;15.90;51.60
7077;DHT22;3579;48.956;9.154;2022-12-07T07:13:46;15.90;51.60
7077;DHT22;3579;48.956;9.154;2022-12-07T07:16:12;15.90;51.70
7077;DHT22;3579;48.956;9.154;2022-12-07T07:18:38;15.90;51.60
7077;DHT22;3579;48.956;9.154;2022-12-07T07:21:04;15.90;51.60
7077;DHT22;3579;48.956;9.154;2022-12-07T07:23:31;15.90;51.60
7077;DHT22;3579;48.956;9.154;2022-12-07T07:25:57;15.90;51.60
7077;DHT22;3579;48.956;9.154;2022-12-07T07:28:23;15.90;51.60
7077;DHT22;3579;48.956;9.154;2022-12-07T07:30:49;15.90;51.60
7077;DHT22;3579;48.956;9.154;2022-12-07T07:33:15;15.90;51.60
7077;DHT22;3579;48.956;9.154;2022-12-07T07:35:41;15.90;51.60
7077;DHT22;3579;48.956;9.154;2022-12-07T07:38:08;15.90;51.60
7077;DHT22;3579;48.956;9.154;2022-12-07T07:40:35;15.90;51.60
7077;DHT22;3579;48.956;9.154;2022-12-07T07:43:01;15.90;51.60
7077;DHT22;3579;48.956;9.154;2022-12-07T07:45:27;15.90;51.60
7077;DHT22;3579;48.956;9.154;2022-12-07T07:47:53;15.90;51.60
7077;DHT22;3579;48.956;9.154;2022-12-07T07:50:21;15.90;51.60
7077;DHT22;3579;48.956;9.154;2022-12-07T07:52:48;15.80;51.60
7077;DHT22;3579;48.956;9.154;2022-12-07T07:55:14;15.80;51.60
7077;DHT22;3579;48.956;9.154;2022-12-07T07:57:40;15.80;51.60
7077;DHT22;3579;48.956;9.154;2022-12-07T08:00:09;15.80;51.60
7077;DHT22;3579;48.956;9.154;2022-12-07T08:02:36;15.80;51.60
7077;DHT22;3579;48.956;9.154;2022-12-07T08:05:02;15.80;51.60
7077;DHT22;3579;48.956;9.154;2022-12-07T08:07:29;15.80;51.70
7077;DHT22;3579;48.956;9.154;2022-12-07T08:09:55;15.80;51.70
7077;DHT22;3579;48.956;9.154;2022-12-07T08:12:22;15.80;51.70
7077;DHT22;3579;48.956;9.154;2022-12-07T08:14:49;15.80;51.70
7077;DHT22;3579;48.956;9.154;2022-12-07T08:17:15;15.80;51.70
7077;DHT22;3579;48.956;9.154;2022-12-07T08:19:41;15.80;51.70
7077;DHT22;3579;48.956;9.154;2022-12-07T08:22:07;15.80;51.70
7077;DHT22;3579;48.956;9.154;2022-12-07T08:24:34;15.80;51.80
7077;DHT22;3579;48.956;9.154;2022-12-07T08:27:00;15.80;51.80
7077;DHT22;3579;48.956;9.154;2022-12-07T08:29:26;15.80;52.00
7077;DHT22;3579;48.956;9.154;2022-12-07T08:31:53;15.90;52.40
7077;DHT22;3579;48.956;9.154;2022-12-07T08:34:19;16.00;52.60
7077;DHT22;3579;48.956;9.154;2022-12-07T08:36:45;16.10;52.70
7077;DHT22;3579;48.956;9.154;2022-12-07T08:39:11;16.20;52.80
7077;DHT22;3579;48.956;9.154;2022-12-07T08:41:38;16.30;52.80
7077;DHT22;3579;48.956;9.154;2022-12-07T08:44:05;16.40;52.90
7077;DHT22;3579;48.956;9.154;2022-12-07T08:46:39;16.70;53.10
7077;DHT22;3579;48.956;9.154;2022-12-07T08:49:11;16.70;53.10
7077;DHT22;3579;48.956;9.154;2022-12-07T08:51:40;16.80;53.20
7077;DHT22;3579;48.956;9.154;2022-12-07T08:54:09;16.90;53.30
7077;DHT22;3579;48.956;9.154;2022-12-07T08:56:36;15.70;52.30
7077;DHT22;3579;48.956;9.154;2022-12-07T08:59:04;17.10;53.30
7077;DHT22;3579;48.956;9.154;2022-12-07T09:02:11;17.20;53.20
7077;DHT22;3579;48.956;9.154;2022-12-07T09:04:41;17.20;53.00
7077;DHT22;3579;48.956;9.154;2022-12-07T09:07:09;17.30;53.00
7077;DHT22;3579;48.956;9.154;2022-12-07T09:09:35;17.40;52.90
7077;DHT22;3579;48.956;9.154;2022-12-07T09:12:02;17.50;52.80
7077;DHT22;3579;48.956;9.154;2022-12-07T09:14:29;17.60;52.80
7077;DHT22;3579;48.956;9.154;2022-12-07T09:16:56;17.70;52.60
7077;DHT22;3579;48.956;9.154;2022-12-07T09:19:30;17.80;52.60
7077;DHT22;3579;48.956;9.154;2022-12-07T09:21:56;17.90;52.60
7077;DHT22;3579;48.956;9.154;2022-12-07T09:24:23;18.00;52.50
7077;DHT22;3579;48.956;9.154;2022-12-07T09:26:50;18.10;52.50
7077;DHT22;3579;48.956;9.154;2022-12-07T09:29:16;18.20;52.40
7077;DHT22;3579;48.956;9.154;2022-12-07T09:31:42;18.20;52.30
7077;DHT22;3579;48.956;9.154;2022-12-07T09:34:09;18.30;52.30
7077;DHT22;3579;48.956;9.154;2022-12-07T09:36:35;18.40;52.30
7077;DHT22;3579;48.956;9.154;2022-12-07T09:39:02;18.50;52.20
7077;DHT22;3579;48.956;9.154;2022-12-07T09:41:31;18.60;52.00
7077;DHT22;3579;48.956;9.154;2022-12-07T09:44:07;18.70;52.00
7077;DHT22;3579;48.956;9.154;2022-12-07T09:46:39;18.70;51.90
7077;DHT22;3579;48.956;9.154;2022-12-07T09:49:14;18.80;51.90
7077;DHT22;3579;48.956;9.154;2022-12-07T09:51:42;18.90;52.40
7077;DHT22;3579;48.956;9.154;2022-12-07T09:54:12;19.00;51.80
7077;DHT22;3579;48.956;9.154;2022-12-07T09:56:39;19.10;51.70
7077;DHT22;3579;48.956;9.154;2022-12-07T09:59:05;19.20;51.70
7077;DHT22;3579;48.956;9.154;2022-12-07T10:01:33;19.30;51.60
7077;DHT22;3579;48.956;9.154;2022-12-07T10:06:36;19.40;51.60
7077;DHT22;3579;48.956;9.154;2022-12-07T10:09:09;19.50;51.50
7077;DHT22;3579;48.956;9.154;2022-12-07T10:14:30;19.60;51.30
7077;DHT22;3579;48.956;9.154;2022-12-07T10:16:57;19.70;51.30
7077;DHT22;3579;48.956;9.154;2022-12-07T10:22:13;19.90;51.20
7077;DHT22;3579;48.956;9.154;2022-12-07T10:24:42;20.00;51.20
7077;DHT22;3579;48.956;9.154;2022-12-07T10:27:41;20.10;51.10
7077;DHT22;3579;48.956;9.154;2022-12-07T10:30:12;20.20;51.00
7077;DHT22;3579;48.956;9.154;2022-12-07T10:32:39;20.30;51.00
7077;DHT22;3579;48.956;9.154;2022-12-07T10:37:49;20.50;50.80
7077;DHT22;3579;48.956;9.154;2022-12-07T10:40:36;20.60;50.80
7077;DHT22;3579;48.956;9.154;2022-12-07T10:52:04;20.90;51.00
7077;DHT22;3579;48.956;9.154;2022-12-07T10:57:17;20.80;50.10
7077;DHT22;3579;48.956;9.154;2022-12-07T10:59:52;20.90;50.60
7077;DHT22;3579;48.956;9.154;2022-12-07T11:02:37;21.00;50.40
7077;DHT22;3579;48.956;9.154;2022-12-07T11:05:27;21.10;50.30
7077;DHT22;3579;48.956;9.154;2022-12-07T11:08:23;21.20;50.20
7077;DHT22;3579;48.956;9.154;2022-12-07T11:11:09;21.50;50.30
7077;DHT22;3579;48.956;9.154;2022-12-07T11:16:55;21.50;50.10
7077;DHT22;3579;48.956;9.154;2022-12-07T11:19:32;21.50;50.00
7077;DHT22;3579;48.956;9.154;2022-12-07T11:22:13;21.60;50.50
7077;DHT22;3579;48.956;9.154;2022-12-07T11:24:57;21.70;49.80
7077;DHT22;3579;48.956;9.154;2022-12-07T11:27:36;21.80;49.80
7077;DHT22;3579;48.956;9.154;2022-12-07T11:30:21;21.80;49.70
7077;DHT22;3579;48.956;9.154;2022-12-07T11:38:15;22.10;49.50
7077;DHT22;3579;48.956;9.154;2022-12-07T11:40:48;22.10;49.60
7077;DHT22;3579;48.956;9.154;2022-12-07T11:43:33;22.20;49.50
7077;DHT22;3579;48.956;9.154;2022-12-07T11:46:08;22.20;49.30
7077;DHT22;3579;48.956;9.154;2022-12-07T11:48:43;22.30;49.30
7077;DHT22;3579;48.956;9.154;2022-12-07T11:51:13;22.40;49.30
7077;DHT22;3579;48.956;9.154;2022-12-07T11:53:54;22.50;49.30
7077;DHT22;3579;48.956;9.154;2022-12-07T11:56:23;22.50;49.10
7077;DHT22;3579;48.956;9.154;2022-12-07T11:58:58;22.60;49.10
7077;DHT22;3579;48.956;9.154;2022-12-07T12:01:54;22.60;49.00
7077;DHT22;3579;48.956;9.154;2022-12-07T12:07:27;22.70;48.90
7077;DHT22;3579;48.956;9.154;2022-12-07T12:09:58;22.80;49.40
7077;DHT22;3579;48.956;9.154;2022-12-07T12:16:16;22.90;48.90
7077;DHT22;3579;48.956;9.154;2022-12-07T12:18:35;22.90;48.70
7077;DHT22;3579;48.956;9.154;2022-12-07T12:21:07;23.00;48.70
7077;DHT22;3579;48.956;9.154;2022-12-07T12:23:40;23.00;48.60
7077;DHT22;3579;48.956;9.154;2022-12-07T12:26:12;23.10;48.50
7077;DHT22;3579;48.956;9.154;2022-12-07T12:28:48;23.20;48.60
7077;DHT22;3579;48.956;9.154;2022-12-07T12:33:59;23.30;48.50
7077;DHT22;3579;48.956;9.154;2022-12-07T12:36:43;23.30;48.40
7077;DHT22;3579;48.956;9.154;2022-12-07T12:39:11;23.40;48.40
7077;DHT22;3579;48.956;9.154;2022-12-07T12:46:53;23.60;48.20
7077;DHT22;3579;48.956;9.154;2022-12-07T12:56:53;23.80;48.10
7077;DHT22;3579;48.956;9.154;2022-12-07T12:59:32;23.80;47.90
7077;DHT22;3579;48.956;9.154;2022-12-07T13:02:22;23.80;47.90
7077;DHT22;3579;48.956;9.154;2022-12-07T13:05:03;23.90;47.90
7077;DHT22;3579;48.956;9.154;2022-12-07T13:15:41;24.10;47.60
7077;DHT22;3579;48.956;9.154;2022-12-07T13:23:29;24.30;47.50
7077;DHT22;3579;48.956;9.154;2022-12-07T13:28:44;24.40;47.40
7077;DHT22;3579;48.956;9.154;2022-12-07T13:33:43;24.50;47.30
7077;DHT22;3579;48.956;9.154;2022-12-07T13:36:36;24.50;47.70
7077;DHT22;3579;48.956;9.154;2022-12-07T13:39:21;24.60;47.20
7077;DHT22;3579;48.956;9.154;2022-12-07T13:41:55;24.60;47.20
7077;DHT22;3579;48.956;9.154;2022-12-07T13:44:25;24.70;47.10
7077;DHT22;3579;48.956;9.154;2022-12-07T13:49:29;24.70;47.10
7077;DHT22;3579;48.956;9.154;2022-12-07T13:54:47;24.80;47.00
7077;DHT22;3579;48.956;9.154;2022-12-07T13:57:16;24.80;46.90
7077;DHT22;3579;48.956;9.154;2022-12-07T13:59:43;24.80;47.00
7077;DHT22;3579;48.956;9.154;2022-12-07T14:02:22;24.70;46.70
7077;DHT22;3579;48.956;9.154;2022-12-07T14:04:50;24.70;46.90
7077;DHT22;3579;48.956;9.154;2022-12-07T14:07:24;24.80;46.80
7077;DHT22;3579;48.956;9.154;2022-12-07T14:10:26;24.70;46.80
7077;DHT22;3579;48.956;9.154;2022-12-07T14:12:53;24.70;46.80
7077;DHT22;3579;48.956;9.154;2022-12-07T14:15:23;24.60;46.90
7077;DHT22;3579;48.956;9.154;2022-12-07T14:17:52;24.50;46.80
7077;DHT22;3579;48.956;9.154;2022-12-07T14:23:02;24.60;46.70
7077;DHT22;3579;48.956;9.154;2022-12-07T14:25:48;24.50;46.80
7077;DHT22;3579;48.956;9.154;2022-12-07T14:28:30;24.50;46.80
7077;DHT22;3579;48.956;9.154;2022-12-07T14:30:57;24.50;46.80
7077;DHT22;3579;48.956;9.154;2022-12-07T14:33:24;24.40;46.70
7077;DHT22;3579;48.956;9.154;2022-12-07T14:35:51;24.40;46.60
7077;DHT22;3579;48.956;9.154;2022-12-07T14:38:25;24.40;46.60
7077;DHT22;3579;48.956;9.154;2022-12-07T14:40:53;24.40;46.60
7077;DHT22;3579;48.956;9.154;2022-12-07T14:43:20;24.30;46.60
7077;DHT22;3579;48.956;9.154;2022-12-07T14:45:46;24.30;46.70
7077;DHT22;3579;48.956;9.154;2022-12-07T14:48:14;24.20;46.60
7077;DHT22;3579;48.956;9.154;2022-12-07T14:50:46;24.20;46.70
7077;DHT22;3579;48.956;9.154;2022-12-07T14:53:16;24.20;46.70
7077;DHT22;3579;48.956;9.154;2022-12-07T14:55:42;24.10;46.60
7077;DHT22;3579;48.956;9.154;2022-12-07T14:58:16;24.00;46.50
7077;DHT22;3579;48.956;9.154;2022-12-07T15:00:44;24.00;46.50
7077;DHT22;3579;48.956;9.154;2022-12-07T15:03:10;24.00;46.60
7077;DHT22;3579;48.956;9.154;2022-12-07T15:05:39;23.90;46.50
7077;DHT22;3579;48.956;9.154;2022-12-07T15:08:08;23.90;46.50
7077;DHT22;3579;48.956;9.154;2022-12-07T15:10:34;23.80;46.50
7077;DHT22;3579;48.956;9.154;2022-12-07T15:13:04;23.80;46.60
7077;DHT22;3579;48.956;9.154;2022-12-07T15:15:51;23.80;46.60
7077;DHT22;3579;48.956;9.154;2022-12-07T15:18:19;23.70;46.60
7077;DHT22;3579;48.956;9.154;2022-12-07T15:20:45;23.70;46.60
7077;DHT22;3579;48.956;9.154;2022-12-07T15:23:12;23.70;46.60
7077;DHT22;3579;48.956;9.154;2022-12-07T15:25:42;23.60;46.50
7077;DHT22;3579;48.956;9.154;2022-12-07T15:28:08;23.60;46.60
7077;DHT22;3579;48.956;9.154;2022-12-07T15:30:37;23.60;46.70
7077;DHT22;3579;48.956;9.154;2022-12-07T15:33:03;23.50;46.60
7077;DHT22;3579;48.956;9.154;2022-12-07T15:35:29;23.50;46.70
7077;DHT22;3579;48.956;9.154;2022-12-07T15:37:55;23.40;46.50
7077;DHT22;3579;48.956;9.154;2022-12-07T15:40:21;23.40;46.60
7077;DHT22;3579;48.956;9.154;2022-12-07T15:42:48;23.30;46.50
7077;DHT22;3579;48.956;9.154;2022-12-07T15:45:14;23.30;46.60
7077;DHT22;3579;48.956;9.154;2022-12-07T15:47:41;23.30;46.60
7077;DHT22;3579;48.956;9.154;2022-12-07T15:50:10;23.20;46.60
7077;DHT22;3579;48.956;9.154;2022-12-07T15:52:36;23.20;46.60
7077;DHT22;3579;48.956;9.154;2022-12-07T15:55:03;23.20;46.60
7077;DHT22;3579;48.956;9.154;2022-12-07T15:57:31;23.10;46.60
7077;DHT22;3579;48.956;9.154;2022-12-07T15:59:58;23.10;46.60
7077;DHT22;3579;48.956;9.154;2022-12-07T16:02:24;23.00;46.60
7077;DHT22;3579;48.956;9.154;2022-12-07T16:04:51;23.00;46.70
7077;DHT22;3579;48.956;9.154;2022-12-07T16:07:17;22.90;46.60
7077;DHT22;3579;48.956;9.154;2022-12-07T16:09:45;22.90;46.60
7077;DHT22;3579;48.956;9.154;2022-12-07T16:12:12;22.90;46.70
7077;DHT22;3579;48.956;9.154;2022-12-07T16:14:39;22.80;47.10
7077;DHT22;3579;48.956;9.154;2022-12-07T16:17:06;22.80;46.60
7077;DHT22;3579;48.956;9.154;2022-12-07T16:19:33;22.80;46.60
7077;DHT22;3579;48.956;9.154;2022-12-07T16:22:00;22.70;46.60
7077;DHT22;3579;48.956;9.154;2022-12-07T16:24:26;22.70;47.20
7077;DHT22;3579;48.956;9.154;2022-12-07T16:26:53;22.60;46.60
7077;DHT22;3579;48.956;9.154;2022-12-07T16:29:21;22.60;46.60
7077;DHT22;3579;48.956;9.154;2022-12-07T16:31:48;22.60;46.70
7077;DHT22;3579;48.956;9.154;2022-12-07T16:34:15;22.50;46.60
7077;DHT22;3579;48.956;9.154;2022-12-07T16:36:41;22.50;46.70
7077;DHT22;3579;48.956;9.154;2022-12-07T16:39:08;22.50;46.70
7077;DHT22;3579;48.956;9.154;2022-12-07T16:41:35;22.40;46.70
7077;DHT22;3579;48.956;9.154;2022-12-07T16:44:06;24.00;48.00
7077;DHT22;3579;48.956;9.154;2022-12-07T16:46:34;22.30;46.70
7077;DHT22;3579;48.956;9.154;2022-12-07T16:49:01;22.30;46.70
7077;DHT22;3579;48.956;9.154;2022-12-07T16:51:27;22.20;46.60
7077;DHT22;3579;48.956;9.154;2022-12-07T16:53:59;22.20;46.70
7077;DHT22;3579;48.956;9.154;2022-12-07T16:56:28;22.20;46.70
7077;DHT22;3579;48.956;9.154;2022-12-07T16:58:55;22.10;46.70
7077;DHT22;3579;48.956;9.154;2022-12-07T17:01:23;22.10;46.70
7077;DHT22;3579;48.956;9.154;2022-12-07T17:03:49;22.00;46.70
7077;DHT22;3579;48.956;9.154;2022-12-07T17:06:21;22.00;46.70
7077;DHT22;3579;48.956;9.154;2022-12-07T17:08:48;22.00;47.30
7077;DHT22;3579;48.956;9.154;2022-12-07T17:11:23;21.90;46.70
7077;DHT22;3579;48.956;9.154;2022-12-07T17:13:50;21.90;46.70
7077;DHT22;3579;48.956;9.154;2022-12-07T17:16:35;21.80;46.60
7077;DHT22;3579;48.956;9.154;2022-12-07T17:19:07;21.80;46.70
7077;DHT22;3579;48.956;9.154;2022-12-07T17:21:34;21.80;46.70
7077;DHT22;3579;48.956;9.154;2022-12-07T17:24:00;21.80;46.70
7077;DHT22;3579;48.956;9.154;2022-12-07T17:26:28;21.70;46.60
7077;DHT22;3579;48.956;9.154;2022-12-07T17:28:55;21.70;46.70
7077;DHT22;3579;48.956;9.154;2022-12-07T17:31:22;21.70;46.80
7077;DHT22;3579;48.956;9.154;2022-12-07T17:33:49;21.60;46.70
7077;DHT22;3579;48.956;9.154;2022-12-07T17:36:20;21.60;46.70
7077;DHT22;3579;48.956;9.154;2022-12-07T17:38:47;21.50;46.60
7077;DHT22;3579;48.956;9.154;2022-12-07T17:41:17;21.60;46.70
7077;DHT22;3579;48.956;9.154;2022-12-07T17:44:03;21.50;46.70
7077;DHT22;3579;48.956;9.154;2022-12-07T17:46:30;21.50;46.80
7077;DHT22;3579;48.956;9.154;2022-12-07T17:48:57;21.40;46.70
7077;DHT22;3579;48.956;9.154;2022-12-07T17:51:24;21.40;46.70
7077;DHT22;3579;48.956;9.154;2022-12-07T17:54:09;21.40;46.80
7077;DHT22;3579;48.956;9.154;2022-12-07T17:56:36;21.30;46.70
7077;DHT22;3579;48.956;9.154;2022-12-07T17:59:03;21.30;46.70
7077;DHT22;3579;48.956;9.154;2022-12-07T18:01:29;21.30;46.70
7077;DHT22;3579;48.956;9.154;2022-12-07T18:03:55;21.30;46.80
7077;DHT22;3579;48.956;9.154;2022-12-07T18:06:21;21.20;46.70
7077;DHT22;3579;48.956;9.154;2022-12-07T18:08:47;21.20;46.70
7077;DHT22;3579;48.956;9.154;2022-12-07T18:11:13;21.20;46.70